ENST/SSJ METAR and TAF weather

Enter ICAO airport designator
Station Type Date Time Source
ENST METAR 2020/03/29 12:20 UTC NOAA

ENST 291220Z 02010KT 9999 VCSH FEW020CB FEW025 BKN045 00/M08 Q1022 RMK WIND 300FT 36007KT


Station Type Date Time Source
ENST Decoded METAR 2020/03/29 12:20 UTC NOAA

Sandnessjoen / Stokka, Norway (ENST) 65-58N 012-28E 17M
Mar 29, 2020 - 08:20 AM EDT / 2020.03.29 1220 UTC
Wind: from the NNE (020 degrees) at 12 MPH (10 KT):0
Visibility: greater than 7 mile(s):0
Sky conditions: mostly cloudy
Weather: showers in the vicinity; Cumulonimbus clouds observed
Temperature: 32 F (0 C)
Windchill: 23 F (-5 C):1
Dew Point: 17 F (-8 C)
Relative Humidity: 54%
Pressure (altimeter): 30.18 in. Hg (1022 hPa)
ob: ENST 291220Z 02010KT 9999 VCSH FEW020CB FEW025 BKN045 00/M08 Q1022 RMK WIND 300FT 36007KT
cycle: 12

Station Type Date Time Source
ENST TAF UTC NOAA

Error!

Example: see airport list